sensor_id;sensor_type;location;lat;lon;timestamp;temperature;humidity
8261;DHT22;64115;50.170;8.242;2022-12-07T00:01:23;1.20;99.90
8261;DHT22;64115;50.170;8.242;2022-12-07T00:03:52;1.20;99.90
8261;DHT22;64115;50.170;8.242;2022-12-07T00:06:20;1.20;99.90
8261;DHT22;64115;50.170;8.242;2022-12-07T00:08:48;1.20;99.90
8261;DHT22;64115;50.170;8.242;2022-12-07T00:11:17;1.20;99.90
8261;DHT22;64115;50.170;8.242;2022-12-07T00:13:44;1.20;99.90
8261;DHT22;64115;50.170;8.242;2022-12-07T00:16:13;1.20;99.90
8261;DHT22;64115;50.170;8.242;2022-12-07T00:18:41;1.20;99.90
8261;DHT22;64115;50.170;8.242;2022-12-07T00:21:10;1.20;99.90
8261;DHT22;64115;50.170;8.242;2022-12-07T00:23:38;1.30;99.90
8261;DHT22;64115;50.170;8.242;2022-12-07T00:26:08;1.20;99.90
8261;DHT22;64115;50.170;8.242;2022-12-07T00:28:35;1.20;99.90
8261;DHT22;64115;50.170;8.242;2022-12-07T00:31:03;1.10;99.90
8261;DHT22;64115;50.170;8.242;2022-12-07T00:33:34;1.10;99.90
8261;DHT22;64115;50.170;8.242;2022-12-07T00:36:02;1.00;99.90
8261;DHT22;64115;50.170;8.242;2022-12-07T00:38:32;0.90;99.90
8261;DHT22;64115;50.170;8.242;2022-12-07T00:41:03;0.90;99.90
8261;DHT22;64115;50.170;8.242;2022-12-07T00:43:31;1.00;99.90
8261;DHT22;64115;50.170;8.242;2022-12-07T00:45:58;1.00;99.90
8261;DHT22;64115;50.170;8.242;2022-12-07T00:48:25;1.00;99.90
8261;DHT22;64115;50.170;8.242;2022-12-07T00:50:52;1.00;99.90
8261;DHT22;64115;50.170;8.242;2022-12-07T00:53:19;1.00;99.90
8261;DHT22;64115;50.170;8.242;2022-12-07T00:55:46;1.10;99.90
8261;DHT22;64115;50.170;8.242;2022-12-07T00:58:13;1.10;99.90
8261;DHT22;64115;50.170;8.242;2022-12-07T01:00:42;1.10;99.90
8261;DHT22;64115;50.170;8.242;2022-12-07T01:03:11;1.20;99.90
8261;DHT22;64115;50.170;8.242;2022-12-07T01:05:38;1.20;99.90
8261;DHT22;64115;50.170;8.242;2022-12-07T01:08:05;1.20;99.90
8261;DHT22;64115;50.170;8.242;2022-12-07T01:10:32;1.10;99.90
8261;DHT22;64115;50.170;8.242;2022-12-07T01:12:59;1.10;99.90
8261;DHT22;64115;50.170;8.242;2022-12-07T01:15:26;1.20;99.90
8261;DHT22;64115;50.170;8.242;2022-12-07T01:17:54;1.10;99.90
8261;DHT22;64115;50.170;8.242;2022-12-07T01:20:21;1.20;99.90
8261;DHT22;64115;50.170;8.242;2022-12-07T01:22:48;1.10;99.90
8261;DHT22;64115;50.170;8.242;2022-12-07T01:25:15;1.10;99.90
8261;DHT22;64115;50.170;8.242;2022-12-07T01:27:42;1.10;99.90
8261;DHT22;64115;50.170;8.242;2022-12-07T01:30:11;1.10;99.90
8261;DHT22;64115;50.170;8.242;2022-12-07T01:32:38;1.10;99.90
8261;DHT22;64115;50.170;8.242;2022-12-07T01:35:07;1.10;99.90
8261;DHT22;64115;50.170;8.242;2022-12-07T01:37:35;1.20;99.90
8261;DHT22;64115;50.170;8.242;2022-12-07T01:40:03;1.20;99.90
8261;DHT22;64115;50.170;8.242;2022-12-07T01:42:30;1.20;99.90
8261;DHT22;64115;50.170;8.242;2022-12-07T01:45:38;1.20;99.90
8261;DHT22;64115;50.170;8.242;2022-12-07T01:48:05;1.20;99.90
8261;DHT22;64115;50.170;8.242;2022-12-07T01:50:35;1.20;99.90
8261;DHT22;64115;50.170;8.242;2022-12-07T01:53:05;1.20;99.90
8261;DHT22;64115;50.170;8.242;2022-12-07T01:55:33;1.20;99.90
8261;DHT22;64115;50.170;8.242;2022-12-07T01:58:00;1.20;99.90
8261;DHT22;64115;50.170;8.242;2022-12-07T02:00:27;1.20;99.90
8261;DHT22;64115;50.170;8.242;2022-12-07T02:02:59;1.20;99.90
8261;DHT22;64115;50.170;8.242;2022-12-07T02:05:30;1.20;99.90
8261;DHT22;64115;50.170;8.242;2022-12-07T02:07:59;1.20;99.90
8261;DHT22;64115;50.170;8.242;2022-12-07T02:10:28;1.20;99.90
8261;DHT22;64115;50.170;8.242;2022-12-07T02:12:58;1.20;99.90
8261;DHT22;64115;50.170;8.242;2022-12-07T02:15:38;1.20;99.90
8261;DHT22;64115;50.170;8.242;2022-12-07T02:18:10;1.20;99.90
8261;DHT22;64115;50.170;8.242;2022-12-07T02:20:46;1.20;99.90
8261;DHT22;64115;50.170;8.242;2022-12-07T02:23:51;1.30;99.90
8261;DHT22;64115;50.170;8.242;2022-12-07T02:26:44;1.30;99.90
8261;DHT22;64115;50.170;8.242;2022-12-07T02:29:20;1.30;99.90
8261;DHT22;64115;50.170;8.242;2022-12-07T02:31:56;1.30;99.90
8261;DHT22;64115;50.170;8.242;2022-12-07T02:34:32;1.30;99.90
8261;DHT22;64115;50.170;8.242;2022-12-07T02:37:03;1.40;99.90
8261;DHT22;64115;50.170;8.242;2022-12-07T02:39:37;1.40;99.90
8261;DHT22;64115;50.170;8.242;2022-12-07T02:42:12;1.40;99.90
8261;DHT22;64115;50.170;8.242;2022-12-07T02:44:42;1.40;99.90
8261;DHT22;64115;50.170;8.242;2022-12-07T02:47:12;1.40;99.90
8261;DHT22;64115;50.170;8.242;2022-12-07T02:49:40;1.40;99.90
8261;DHT22;64115;50.170;8.242;2022-12-07T02:52:07;1.50;99.90
8261;DHT22;64115;50.170;8.242;2022-12-07T02:54:34;1.40;99.90
8261;DHT22;64115;50.170;8.242;2022-12-07T02:57:07;1.50;99.90
8261;DHT22;64115;50.170;8.242;2022-12-07T02:59:49;1.50;99.90
8261;DHT22;64115;50.170;8.242;2022-12-07T03:02:25;1.50;99.90
8261;DHT22;64115;50.170;8.242;2022-12-07T03:07:59;1.50;99.90
8261;DHT22;64115;50.170;8.242;2022-12-07T03:10:35;1.50;99.90
8261;DHT22;64115;50.170;8.242;2022-12-07T03:13:09;1.50;99.90
8261;DHT22;64115;50.170;8.242;2022-12-07T03:15:45;1.50;99.90
8261;DHT22;64115;50.170;8.242;2022-12-07T03:18:16;1.60;99.90
8261;DHT22;64115;50.170;8.242;2022-12-07T03:20:46;1.60;99.90
8261;DHT22;64115;50.170;8.242;2022-12-07T03:23:16;1.60;99.90
8261;DHT22;64115;50.170;8.242;2022-12-07T03:25:47;1.60;99.90
8261;DHT22;64115;50.170;8.242;2022-12-07T03:28:17;1.60;99.90
8261;DHT22;64115;50.170;8.242;2022-12-07T03:30:49;1.60;99.90
8261;DHT22;64115;50.170;8.242;2022-12-07T03:33:21;1.60;99.90
8261;DHT22;64115;50.170;8.242;2022-12-07T03:35:53;1.60;99.90
8261;DHT22;64115;50.170;8.242;2022-12-07T03:38:27;1.60;99.90
8261;DHT22;64115;50.170;8.242;2022-12-07T03:41:00;1.60;99.90
8261;DHT22;64115;50.170;8.242;2022-12-07T03:43:28;1.60;99.90
8261;DHT22;64115;50.170;8.242;2022-12-07T03:46:03;1.70;99.90
8261;DHT22;64115;50.170;8.242;2022-12-07T03:48:35;1.70;99.90
8261;DHT22;64115;50.170;8.242;2022-12-07T03:51:11;1.70;99.90
8261;DHT22;64115;50.170;8.242;2022-12-07T03:53:43;1.70;99.90
8261;DHT22;64115;50.170;8.242;2022-12-07T03:56:13;1.80;99.90
8261;DHT22;64115;50.170;8.242;2022-12-07T03:58:41;1.80;99.90
8261;DHT22;64115;50.170;8.242;2022-12-07T04:01:10;1.80;99.90
8261;DHT22;64115;50.170;8.242;2022-12-07T04:03:37;1.80;99.90
8261;DHT22;64115;50.170;8.242;2022-12-07T04:06:04;1.80;99.90
8261;DHT22;64115;50.170;8.242;2022-12-07T04:08:31;1.80;99.90
8261;DHT22;64115;50.170;8.242;2022-12-07T04:10:58;1.80;99.90
8261;DHT22;64115;50.170;8.242;2022-12-07T04:13:24;1.80;99.90
8261;DHT22;64115;50.170;8.242;2022-12-07T04:15:51;1.80;99.90
8261;DHT22;64115;50.170;8.242;2022-12-07T04:18:19;1.80;99.90
8261;DHT22;64115;50.170;8.242;2022-12-07T04:20:46;1.80;99.90
8261;DHT22;64115;50.170;8.242;2022-12-07T04:23:14;1.90;99.90
8261;DHT22;64115;50.170;8.242;2022-12-07T04:25:40;1.90;99.90
8261;DHT22;64115;50.170;8.242;2022-12-07T04:28:07;1.90;99.90
8261;DHT22;64115;50.170;8.242;2022-12-07T04:30:34;1.90;99.90
8261;DHT22;64115;50.170;8.242;2022-12-07T04:33:01;1.90;99.90
8261;DHT22;64115;50.170;8.242;2022-12-07T04:35:29;1.90;99.90
8261;DHT22;64115;50.170;8.242;2022-12-07T04:37:56;1.90;99.90
8261;DHT22;64115;50.170;8.242;2022-12-07T04:40:22;1.90;99.90
8261;DHT22;64115;50.170;8.242;2022-12-07T04:42:49;1.90;99.90
8261;DHT22;64115;50.170;8.242;2022-12-07T04:45:16;1.90;99.90
8261;DHT22;64115;50.170;8.242;2022-12-07T04:47:43;1.90;99.90
8261;DHT22;64115;50.170;8.242;2022-12-07T04:50:10;1.90;99.90
8261;DHT22;64115;50.170;8.242;2022-12-07T04:52:38;1.90;99.90
8261;DHT22;64115;50.170;8.242;2022-12-07T04:55:06;1.90;99.90
8261;DHT22;64115;50.170;8.242;2022-12-07T04:57:32;1.90;99.90
8261;DHT22;64115;50.170;8.242;2022-12-07T04:59:59;1.90;99.90
8261;DHT22;64115;50.170;8.242;2022-12-07T05:02:26;1.90;99.90
8261;DHT22;64115;50.170;8.242;2022-12-07T05:04:53;1.90;99.90
8261;DHT22;64115;50.170;8.242;2022-12-07T05:07:19;1.90;99.90
8261;DHT22;64115;50.170;8.242;2022-12-07T05:09:48;1.90;99.90
8261;DHT22;64115;50.170;8.242;2022-12-07T05:12:14;2.00;99.90
8261;DHT22;64115;50.170;8.242;2022-12-07T05:14:41;2.00;99.90
8261;DHT22;64115;50.170;8.242;2022-12-07T05:17:08;2.00;99.90
8261;DHT22;64115;50.170;8.242;2022-12-07T05:19:36;2.00;99.90
8261;DHT22;64115;50.170;8.242;2022-12-07T05:22:03;2.00;99.90
8261;DHT22;64115;50.170;8.242;2022-12-07T05:24:30;2.00;99.90
8261;DHT22;64115;50.170;8.242;2022-12-07T05:26:58;2.00;99.90
8261;DHT22;64115;50.170;8.242;2022-12-07T05:29:25;2.10;99.90
8261;DHT22;64115;50.170;8.242;2022-12-07T05:31:52;2.00;99.90
8261;DHT22;64115;50.170;8.242;2022-12-07T05:34:19;2.00;99.90
8261;DHT22;64115;50.170;8.242;2022-12-07T05:36:45;2.00;99.90
8261;DHT22;64115;50.170;8.242;2022-12-07T05:39:12;1.90;99.90
8261;DHT22;64115;50.170;8.242;2022-12-07T05:41:39;1.90;99.90
8261;DHT22;64115;50.170;8.242;2022-12-07T05:44:25;1.90;99.90
8261;DHT22;64115;50.170;8.242;2022-12-07T05:46:51;1.90;99.90
8261;DHT22;64115;50.170;8.242;2022-12-07T05:49:18;2.00;99.90
8261;DHT22;64115;50.170;8.242;2022-12-07T05:51:45;1.90;99.90
8261;DHT22;64115;50.170;8.242;2022-12-07T05:54:12;1.90;99.90
8261;DHT22;64115;50.170;8.242;2022-12-07T05:56:38;1.90;99.90
8261;DHT22;64115;50.170;8.242;2022-12-07T05:59:05;2.00;99.90
8261;DHT22;64115;50.170;8.242;2022-12-07T06:01:53;1.90;99.90
8261;DHT22;64115;50.170;8.242;2022-12-07T06:04:21;1.90;99.90
8261;DHT22;64115;50.170;8.242;2022-12-07T06:06:48;1.90;99.90
8261;DHT22;64115;50.170;8.242;2022-12-07T06:09:16;1.90;99.90
8261;DHT22;64115;50.170;8.242;2022-12-07T06:11:44;1.90;99.90
8261;DHT22;64115;50.170;8.242;2022-12-07T06:14:28;1.90;99.90
8261;DHT22;64115;50.170;8.242;2022-12-07T06:16:56;1.90;99.90
8261;DHT22;64115;50.170;8.242;2022-12-07T06:19:23;2.00;99.90
8261;DHT22;64115;50.170;8.242;2022-12-07T06:21:50;1.90;99.90
8261;DHT22;64115;50.170;8.242;2022-12-07T06:24:17;2.00;99.90
8261;DHT22;64115;50.170;8.242;2022-12-07T06:26:44;2.00;99.90
8261;DHT22;64115;50.170;8.242;2022-12-07T06:29:12;2.00;99.90
8261;DHT22;64115;50.170;8.242;2022-12-07T06:31:39;2.00;99.90
8261;DHT22;64115;50.170;8.242;2022-12-07T06:34:10;2.00;99.90
8261;DHT22;64115;50.170;8.242;2022-12-07T06:36:37;2.00;99.90
8261;DHT22;64115;50.170;8.242;2022-12-07T06:39:05;1.90;99.90
8261;DHT22;64115;50.170;8.242;2022-12-07T06:41:33;2.00;99.90
8261;DHT22;64115;50.170;8.242;2022-12-07T06:44:00;2.00;99.90
8261;DHT22;64115;50.170;8.242;2022-12-07T06:46:26;2.00;99.90
8261;DHT22;64115;50.170;8.242;2022-12-07T06:48:53;2.00;99.90
8261;DHT22;64115;50.170;8.242;2022-12-07T06:51:21;2.00;99.90
8261;DHT22;64115;50.170;8.242;2022-12-07T06:53:48;2.00;99.90
8261;DHT22;64115;50.170;8.242;2022-12-07T06:56:16;2.00;99.90
8261;DHT22;64115;50.170;8.242;2022-12-07T06:58:43;2.00;99.90
8261;DHT22;64115;50.170;8.242;2022-12-07T07:01:11;2.00;99.90
8261;DHT22;64115;50.170;8.242;2022-12-07T07:03:39;2.00;99.90
8261;DHT22;64115;50.170;8.242;2022-12-07T07:06:07;2.10;99.90
8261;DHT22;64115;50.170;8.242;2022-12-07T07:08:35;2.10;99.90
8261;DHT22;64115;50.170;8.242;2022-12-07T07:11:03;2.10;99.90
8261;DHT22;64115;50.170;8.242;2022-12-07T07:13:30;2.10;99.90
8261;DHT22;64115;50.170;8.242;2022-12-07T07:15:57;2.10;99.90
8261;DHT22;64115;50.170;8.242;2022-12-07T07:18:24;2.10;99.90
8261;DHT22;64115;50.170;8.242;2022-12-07T07:20:51;2.00;99.90
8261;DHT22;64115;50.170;8.242;2022-12-07T07:23:18;2.00;99.90
8261;DHT22;64115;50.170;8.242;2022-12-07T07:25:47;2.00;99.90
8261;DHT22;64115;50.170;8.242;2022-12-07T07:28:14;2.10;99.90
8261;DHT22;64115;50.170;8.242;2022-12-07T07:30:41;2.10;99.90
8261;DHT22;64115;50.170;8.242;2022-12-07T07:33:09;2.10;99.90
8261;DHT22;64115;50.170;8.242;2022-12-07T07:35:36;2.10;99.90
8261;DHT22;64115;50.170;8.242;2022-12-07T07:38:04;2.10;99.90
8261;DHT22;64115;50.170;8.242;2022-12-07T07:40:31;2.10;99.90
8261;DHT22;64115;50.170;8.242;2022-12-07T07:42:59;2.20;99.90
8261;DHT22;64115;50.170;8.242;2022-12-07T07:45:27;2.10;99.90
8261;DHT22;64115;50.170;8.242;2022-12-07T07:47:54;2.20;99.90
8261;DHT22;64115;50.170;8.242;2022-12-07T07:50:21;2.20;99.90
8261;DHT22;64115;50.170;8.242;2022-12-07T07:52:48;2.20;99.90
8261;DHT22;64115;50.170;8.242;2022-12-07T07:55:15;2.20;99.90
8261;DHT22;64115;50.170;8.242;2022-12-07T07:57:42;2.20;99.90
8261;DHT22;64115;50.170;8.242;2022-12-07T08:00:13;2.20;99.90
8261;DHT22;64115;50.170;8.242;2022-12-07T08:02:40;2.20;99.90
8261;DHT22;64115;50.170;8.242;2022-12-07T08:05:08;2.20;99.90
8261;DHT22;64115;50.170;8.242;2022-12-07T08:07:35;2.20;99.90
8261;DHT22;64115;50.170;8.242;2022-12-07T08:10:03;2.20;99.90
8261;DHT22;64115;50.170;8.242;2022-12-07T08:12:30;2.20;99.90
8261;DHT22;64115;50.170;8.242;2022-12-07T08:14:56;2.30;99.90
8261;DHT22;64115;50.170;8.242;2022-12-07T08:17:25;2.30;99.90
8261;DHT22;64115;50.170;8.242;2022-12-07T08:19:51;2.30;99.90
8261;DHT22;64115;50.170;8.242;2022-12-07T08:22:18;2.30;99.90
8261;DHT22;64115;50.170;8.242;2022-12-07T08:24:45;2.30;99.90
8261;DHT22;64115;50.170;8.242;2022-12-07T08:27:12;2.30;99.90
8261;DHT22;64115;50.170;8.242;2022-12-07T08:29:39;2.40;99.90
8261;DHT22;64115;50.170;8.242;2022-12-07T08:32:05;2.30;99.90
8261;DHT22;64115;50.170;8.242;2022-12-07T08:34:34;2.40;99.90
8261;DHT22;64115;50.170;8.242;2022-12-07T08:37:01;2.40;99.90
8261;DHT22;64115;50.170;8.242;2022-12-07T08:39:28;2.40;99.90
8261;DHT22;64115;50.170;8.242;2022-12-07T08:41:54;2.40;99.90
8261;DHT22;64115;50.170;8.242;2022-12-07T08:44:21;2.40;99.90
8261;DHT22;64115;50.170;8.242;2022-12-07T08:46:52;2.50;99.90
8261;DHT22;64115;50.170;8.242;2022-12-07T08:49:21;2.50;99.90
8261;DHT22;64115;50.170;8.242;2022-12-07T08:51:51;2.50;99.90
8261;DHT22;64115;50.170;8.242;2022-12-07T08:54:18;2.50;99.90
8261;DHT22;64115;50.170;8.242;2022-12-07T08:56:47;2.70;99.90
8261;DHT22;64115;50.170;8.242;2022-12-07T08:59:15;2.70;99.90
8261;DHT22;64115;50.170;8.242;2022-12-07T09:01:44;2.80;99.90
8261;DHT22;64115;50.170;8.242;2022-12-07T09:04:11;3.00;99.90
8261;DHT22;64115;50.170;8.242;2022-12-07T09:06:38;3.00;99.90
8261;DHT22;64115;50.170;8.242;2022-12-07T09:09:06;3.00;99.90
8261;DHT22;64115;50.170;8.242;2022-12-07T09:11:34;2.90;99.90
8261;DHT22;64115;50.170;8.242;2022-12-07T09:14:00;2.90;99.90
8261;DHT22;64115;50.170;8.242;2022-12-07T09:16:27;2.80;99.90
8261;DHT22;64115;50.170;8.242;2022-12-07T09:18:54;2.80;99.90
8261;DHT22;64115;50.170;8.242;2022-12-07T09:21:22;2.70;99.90
8261;DHT22;64115;50.170;8.242;2022-12-07T09:23:49;2.70;99.90
8261;DHT22;64115;50.170;8.242;2022-12-07T09:26:17;2.70;99.90
8261;DHT22;64115;50.170;8.242;2022-12-07T09:28:44;2.70;99.90
8261;DHT22;64115;50.170;8.242;2022-12-07T09:31:11;2.70;99.90
8261;DHT22;64115;50.170;8.242;2022-12-07T09:33:38;2.70;99.90
8261;DHT22;64115;50.170;8.242;2022-12-07T09:36:05;2.80;99.90
8261;DHT22;64115;50.170;8.242;2022-12-07T09:38:32;2.90;99.90
8261;DHT22;64115;50.170;8.242;2022-12-07T09:41:04;2.90;99.90
8261;DHT22;64115;50.170;8.242;2022-12-07T09:43:35;2.90;99.90
8261;DHT22;64115;50.170;8.242;2022-12-07T09:46:03;3.00;99.90
8261;DHT22;64115;50.170;8.242;2022-12-07T09:48:33;3.00;99.90
8261;DHT22;64115;50.170;8.242;2022-12-07T09:51:02;3.00;99.90
8261;DHT22;64115;50.170;8.242;2022-12-07T09:53:33;3.00;99.90
8261;DHT22;64115;50.170;8.242;2022-12-07T09:56:01;3.00;99.90
8261;DHT22;64115;50.170;8.242;2022-12-07T09:58:29;3.00;99.90
8261;DHT22;64115;50.170;8.242;2022-12-07T10:01:01;3.00;99.90
8261;DHT22;64115;50.170;8.242;2022-12-07T10:03:31;3.00;99.90
8261;DHT22;64115;50.170;8.242;2022-12-07T10:05:59;2.90;99.90
8261;DHT22;64115;50.170;8.242;2022-12-07T10:08:26;3.00;99.90
8261;DHT22;64115;50.170;8.242;2022-12-07T10:10:54;3.10;99.90
8261;DHT22;64115;50.170;8.242;2022-12-07T10:13:33;3.00;99.90
8261;DHT22;64115;50.170;8.242;2022-12-07T10:16:02;3.00;99.90
8261;DHT22;64115;50.170;8.242;2022-12-07T10:18:30;3.10;99.90
8261;DHT22;64115;50.170;8.242;2022-12-07T10:21:09;3.10;99.90
8261;DHT22;64115;50.170;8.242;2022-12-07T10:23:38;3.20;99.90
8261;DHT22;64115;50.170;8.242;2022-12-07T10:26:28;3.30;99.90
8261;DHT22;64115;50.170;8.242;2022-12-07T10:28:56;3.40;99.90
8261;DHT22;64115;50.170;8.242;2022-12-07T10:31:26;3.50;99.90
8261;DHT22;64115;50.170;8.242;2022-12-07T10:33:54;3.70;99.90
8261;DHT22;64115;50.170;8.242;2022-12-07T10:36:24;3.80;99.90
8261;DHT22;64115;50.170;8.242;2022-12-07T10:38:53;3.90;99.90
8261;DHT22;64115;50.170;8.242;2022-12-07T10:41:25;3.80;99.90
8261;DHT22;64115;50.170;8.242;2022-12-07T10:43:53;3.80;99.90
8261;DHT22;64115;50.170;8.242;2022-12-07T10:49:46;3.50;99.90
8261;DHT22;64115;50.170;8.242;2022-12-07T10:52:26;3.40;99.90
8261;DHT22;64115;50.170;8.242;2022-12-07T10:55:11;3.40;99.90
8261;DHT22;64115;50.170;8.242;2022-12-07T10:57:50;3.30;99.90
8261;DHT22;64115;50.170;8.242;2022-12-07T11:00:21;3.40;99.90
8261;DHT22;64115;50.170;8.242;2022-12-07T11:03:18;3.50;99.90
8261;DHT22;64115;50.170;8.242;2022-12-07T11:05:54;3.50;99.90
8261;DHT22;64115;50.170;8.242;2022-12-07T11:08:38;3.50;99.90
8261;DHT22;64115;50.170;8.242;2022-12-07T11:11:11;3.50;99.90
8261;DHT22;64115;50.170;8.242;2022-12-07T11:13:44;3.40;99.90
8261;DHT22;64115;50.170;8.242;2022-12-07T11:16:38;3.40;99.90
8261;DHT22;64115;50.170;8.242;2022-12-07T11:19:17;3.50;99.90
8261;DHT22;64115;50.170;8.242;2022-12-07T11:21:51;3.60;99.90
8261;DHT22;64115;50.170;8.242;2022-12-07T11:24:27;3.50;99.90
8261;DHT22;64115;50.170;8.242;2022-12-07T11:27:07;3.50;99.90
8261;DHT22;64115;50.170;8.242;2022-12-07T11:29:45;3.30;99.90
8261;DHT22;64115;50.170;8.242;2022-12-07T11:32:17;3.30;99.90
8261;DHT22;64115;50.170;8.242;2022-12-07T11:34:55;3.30;99.90
8261;DHT22;64115;50.170;8.242;2022-12-07T11:37:31;3.30;99.90
8261;DHT22;64115;50.170;8.242;2022-12-07T11:40:02;3.30;99.90
8261;DHT22;64115;50.170;8.242;2022-12-07T11:42:40;3.30;99.90
8261;DHT22;64115;50.170;8.242;2022-12-07T11:45:14;3.40;99.90
8261;DHT22;64115;50.170;8.242;2022-12-07T11:47:46;3.60;99.90
8261;DHT22;64115;50.170;8.242;2022-12-07T11:50:25;3.90;99.90
8261;DHT22;64115;50.170;8.242;2022-12-07T11:52:57;4.00;99.90
8261;DHT22;64115;50.170;8.242;2022-12-07T11:55:29;4.00;99.90
8261;DHT22;64115;50.170;8.242;2022-12-07T11:58:02;3.80;99.90
8261;DHT22;64115;50.170;8.242;2022-12-07T12:00:30;3.80;99.90
8261;DHT22;64115;50.170;8.242;2022-12-07T12:03:01;3.60;99.90
8261;DHT22;64115;50.170;8.242;2022-12-07T12:05:28;3.50;99.90
8261;DHT22;64115;50.170;8.242;2022-12-07T12:08:02;3.60;99.90
8261;DHT22;64115;50.170;8.242;2022-12-07T12:10:37;3.50;99.90
8261;DHT22;64115;50.170;8.242;2022-12-07T12:16:20;3.60;99.90
8261;DHT22;64115;50.170;8.242;2022-12-07T12:19:16;3.90;99.90
8261;DHT22;64115;50.170;8.242;2022-12-07T12:21:46;4.10;99.90
8261;DHT22;64115;50.170;8.242;2022-12-07T12:24:18;4.10;99.90
8261;DHT22;64115;50.170;8.242;2022-12-07T12:26:50;4.00;99.90
8261;DHT22;64115;50.170;8.242;2022-12-07T12:29:22;3.80;99.90
8261;DHT22;64115;50.170;8.242;2022-12-07T12:32:07;3.70;99.90
8261;DHT22;64115;50.170;8.242;2022-12-07T12:34:40;3.70;99.90
8261;DHT22;64115;50.170;8.242;2022-12-07T12:37:42;3.70;99.90
8261;DHT22;64115;50.170;8.242;2022-12-07T12:43:46;3.70;99.90
8261;DHT22;64115;50.170;8.242;2022-12-07T12:46:54;3.60;99.90
8261;DHT22;64115;50.170;8.242;2022-12-07T12:49:43;3.70;99.90
8261;DHT22;64115;50.170;8.242;2022-12-07T12:52:53;3.50;99.90
8261;DHT22;64115;50.170;8.242;2022-12-07T12:58:37;3.30;99.90
8261;DHT22;64115;50.170;8.242;2022-12-07T13:04:24;3.50;99.90
8261;DHT22;64115;50.170;8.242;2022-12-07T13:06:51;3.50;99.90
8261;DHT22;64115;50.170;8.242;2022-12-07T13:09:21;3.40;99.90
8261;DHT22;64115;50.170;8.242;2022-12-07T13:11:54;3.30;99.90
8261;DHT22;64115;50.170;8.242;2022-12-07T13:14:57;3.30;99.90
8261;DHT22;64115;50.170;8.242;2022-12-07T13:17:58;3.20;99.90
8261;DHT22;64115;50.170;8.242;2022-12-07T13:20:49;3.20;99.90
8261;DHT22;64115;50.170;8.242;2022-12-07T13:23:24;3.20;99.90
8261;DHT22;64115;50.170;8.242;2022-12-07T13:25:56;3.30;99.90
8261;DHT22;64115;50.170;8.242;2022-12-07T13:28:32;3.40;99.90
8261;DHT22;64115;50.170;8.242;2022-12-07T13:31:23;3.30;99.90
8261;DHT22;64115;50.170;8.242;2022-12-07T13:33:52;3.30;99.90
8261;DHT22;64115;50.170;8.242;2022-12-07T13:36:22;3.20;99.90
8261;DHT22;64115;50.170;8.242;2022-12-07T13:38:52;3.20;99.90
8261;DHT22;64115;50.170;8.242;2022-12-07T13:41:20;3.20;99.90
8261;DHT22;64115;50.170;8.242;2022-12-07T13:43:50;3.20;99.90
8261;DHT22;64115;50.170;8.242;2022-12-07T13:46:20;3.00;99.90
8261;DHT22;64115;50.170;8.242;2022-12-07T13:48:50;2.90;99.90
8261;DHT22;64115;50.170;8.242;2022-12-07T13:51:22;2.70;99.90
8261;DHT22;64115;50.170;8.242;2022-12-07T13:53:52;2.60;99.90
8261;DHT22;64115;50.170;8.242;2022-12-07T13:56:22;2.60;99.90
8261;DHT22;64115;50.170;8.242;2022-12-07T13:58:50;2.60;99.90
8261;DHT22;64115;50.170;8.242;2022-12-07T14:01:19;2.70;99.90
8261;DHT22;64115;50.170;8.242;2022-12-07T14:03:46;2.70;99.90
8261;DHT22;64115;50.170;8.242;2022-12-07T14:06:30;2.80;99.90
8261;DHT22;64115;50.170;8.242;2022-12-07T14:09:08;2.80;99.90
8261;DHT22;64115;50.170;8.242;2022-12-07T14:11:35;2.80;99.90
8261;DHT22;64115;50.170;8.242;2022-12-07T14:14:03;2.80;99.90
8261;DHT22;64115;50.170;8.242;2022-12-07T14:16:32;2.80;99.90
8261;DHT22;64115;50.170;8.242;2022-12-07T14:19:02;2.80;99.90
8261;DHT22;64115;50.170;8.242;2022-12-07T14:21:32;2.80;99.90
8261;DHT22;64115;50.170;8.242;2022-12-07T14:24:12;2.80;99.90
8261;DHT22;64115;50.170;8.242;2022-12-07T14:26:42;2.90;99.90
8261;DHT22;64115;50.170;8.242;2022-12-07T14:29:30;2.90;99.90
8261;DHT22;64115;50.170;8.242;2022-12-07T14:31:57;3.00;99.90
8261;DHT22;64115;50.170;8.242;2022-12-07T14:34:25;3.00;99.90
8261;DHT22;64115;50.170;8.242;2022-12-07T14:36:53;3.00;99.90
8261;DHT22;64115;50.170;8.242;2022-12-07T14:39:20;3.00;99.90
8261;DHT22;64115;50.170;8.242;2022-12-07T14:41:47;3.00;99.90
8261;DHT22;64115;50.170;8.242;2022-12-07T14:44:21;3.00;99.90
8261;DHT22;64115;50.170;8.242;2022-12-07T14:46:50;3.00;99.90
8261;DHT22;64115;50.170;8.242;2022-12-07T14:49:18;3.00;99.90
8261;DHT22;64115;50.170;8.242;2022-12-07T14:51:46;2.80;99.90
8261;DHT22;64115;50.170;8.242;2022-12-07T14:54:17;2.80;99.90
8261;DHT22;64115;50.170;8.242;2022-12-07T14:56:44;2.80;99.90
8261;DHT22;64115;50.170;8.242;2022-12-07T14:59:15;2.70;99.90
8261;DHT22;64115;50.170;8.242;2022-12-07T15:01:42;2.70;99.90
8261;DHT22;64115;50.170;8.242;2022-12-07T15:04:09;2.70;99.90
8261;DHT22;64115;50.170;8.242;2022-12-07T15:06:36;2.70;99.90
8261;DHT22;64115;50.170;8.242;2022-12-07T15:09:03;2.70;99.90
8261;DHT22;64115;50.170;8.242;2022-12-07T15:11:32;2.70;99.90
8261;DHT22;64115;50.170;8.242;2022-12-07T15:13:59;2.70;99.90
8261;DHT22;64115;50.170;8.242;2022-12-07T15:16:35;2.50;99.90
8261;DHT22;64115;50.170;8.242;2022-12-07T15:19:02;2.40;99.90
8261;DHT22;64115;50.170;8.242;2022-12-07T15:21:29;2.40;99.90
8261;DHT22;64115;50.170;8.242;2022-12-07T15:23:56;2.40;99.90
8261;DHT22;64115;50.170;8.242;2022-12-07T15:26:23;2.30;99.90
8261;DHT22;64115;50.170;8.242;2022-12-07T15:28:53;2.30;99.90
8261;DHT22;64115;50.170;8.242;2022-12-07T15:31:20;2.20;99.90
8261;DHT22;64115;50.170;8.242;2022-12-07T15:33:47;2.20;99.90
8261;DHT22;64115;50.170;8.242;2022-12-07T15:36:19;2.10;99.90
8261;DHT22;64115;50.170;8.242;2022-12-07T15:38:47;2.10;99.90
8261;DHT22;64115;50.170;8.242;2022-12-07T15:41:14;2.10;99.90
8261;DHT22;64115;50.170;8.242;2022-12-07T15:43:41;2.10;99.90
8261;DHT22;64115;50.170;8.242;2022-12-07T15:46:30;2.00;99.90
8261;DHT22;64115;50.170;8.242;2022-12-07T15:48:57;2.00;99.90
8261;DHT22;64115;50.170;8.242;2022-12-07T15:51:24;1.90;99.90
8261;DHT22;64115;50.170;8.242;2022-12-07T15:53:51;1.90;99.90
8261;DHT22;64115;50.170;8.242;2022-12-07T15:56:18;2.00;99.90
8261;DHT22;64115;50.170;8.242;2022-12-07T15:58:45;1.90;99.90
8261;DHT22;64115;50.170;8.242;2022-12-07T16:01:13;1.90;99.90
8261;DHT22;64115;50.170;8.242;2022-12-07T16:03:41;1.90;99.90
8261;DHT22;64115;50.170;8.242;2022-12-07T16:06:09;1.90;99.90
8261;DHT22;64115;50.170;8.242;2022-12-07T16:08:36;1.90;99.90
8261;DHT22;64115;50.170;8.242;2022-12-07T16:11:05;1.90;99.90
8261;DHT22;64115;50.170;8.242;2022-12-07T16:13:34;1.90;99.90
8261;DHT22;64115;50.170;8.242;2022-12-07T16:16:03;1.90;99.90
8261;DHT22;64115;50.170;8.242;2022-12-07T16:18:30;1.90;99.90
8261;DHT22;64115;50.170;8.242;2022-12-07T16:20:58;1.90;99.90
8261;DHT22;64115;50.170;8.242;2022-12-07T16:23:26;1.90;99.90
8261;DHT22;64115;50.170;8.242;2022-12-07T16:25:53;1.80;99.90
8261;DHT22;64115;50.170;8.242;2022-12-07T16:28:19;1.90;99.90
8261;DHT22;64115;50.170;8.242;2022-12-07T16:30:46;1.80;99.90
8261;DHT22;64115;50.170;8.242;2022-12-07T16:33:13;1.80;99.90
8261;DHT22;64115;50.170;8.242;2022-12-07T16:35:40;1.80;99.90
8261;DHT22;64115;50.170;8.242;2022-12-07T16:38:09;1.60;99.90
8261;DHT22;64115;50.170;8.242;2022-12-07T16:40:35;1.50;99.90
8261;DHT22;64115;50.170;8.242;2022-12-07T16:43:02;1.40;99.90